Time;durP1;ratioP1;P1;durP2;ratioP2;P2;SDS_P1;SDS_P2;PMS_P1;PMS_P2;Temp;Humidity;BMP_temperature;BMP_pressure;BME280_temperature;BME280_humidity;BME280_pressure;Samples;Min_cycle;Max_cycle;Signal;HPM_P1;HPM_P2
2021/08/12 00:00:07;;;;;;;4.82;2.70;;;24.10;60.90;;;;;;5052651;28;20444;-62
2021/08/12 00:02:32;;;;;;;4.68;2.80;;;24.10;60.90;;;;;;5053563;28;20029;-62
2021/08/12 00:04:58;;;;;;;3.95;2.58;;;24.10;60.90;;;;;;5052400;28;20033;-62
2021/08/12 00:07:24;;;;;;;3.85;2.90;;;24.10;60.90;;;;;;5052768;28;20502;-62
2021/08/12 00:09:49;;;;;;;4.90;3.30;;;24.10;60.80;;;;;;5052512;28;20032;-62
2021/08/12 00:12:15;;;;;;;4.70;3.10;;;24.10;60.80;;;;;;5052393;28;20419;-62
2021/08/12 00:14:41;;;;;;;3.03;2.60;;;24.10;60.80;;;;;;5052484;28;20476;-62
2021/08/12 00:17:06;;;;;;;4.55;2.75;;;24.10;60.80;;;;;;5051303;28;20120;-62
2021/08/12 00:19:32;;;;;;;3.92;2.67;;;24.10;60.90;;;;;;5052465;28;20472;-62
2021/08/12 00:21:57;;;;;;;4.97;3.00;;;24.10;60.80;;;;;;5051645;28;20032;-62
2021/08/12 00:24:23;;;;;;;4.65;3.00;;;24.10;60.70;;;;;;5052299;28;20068;-62
2021/08/12 00:26:49;;;;;;;3.80;2.80;;;24.10;60.70;;;;;;5052214;28;20535;-61
2021/08/12 00:29:15;;;;;;;4.13;2.75;;;24.10;60.70;;;;;;5051206;28;20072;-61
2021/08/12 00:31:41;;;;;;;4.15;2.97;;;24.10;60.70;;;;;;5051988;28;20041;-61
2021/08/12 00:34:06;;;;;;;4.00;2.65;;;24.10;60.70;;;;;;5051246;28;20040;-61
2021/08/12 00:36:32;;;;;;;4.85;2.75;;;24.10;60.70;;;;;;5052170;28;20051;-61
2021/08/12 00:38:57;;;;;;;4.15;3.00;;;24.10;60.70;;;;;;5051298;28;20105;-61
2021/08/12 00:41:23;;;;;;;4.57;3.13;;;24.10;60.70;;;;;;5051810;28;20029;-61
2021/08/12 00:43:49;;;;;;;4.30;3.13;;;24.10;60.70;;;;;;5052110;28;20041;-61
2021/08/12 00:46:15;;;;;;;7.40;3.33;;;24.00;60.60;;;;;;5051478;28;20029;-61
2021/08/12 00:48:40;;;;;;;4.25;2.70;;;24.00;60.60;;;;;;5052333;28;20440;-61
2021/08/12 00:51:06;;;;;;;5.50;3.30;;;24.10;60.70;;;;;;5050806;28;20039;-61
2021/08/12 00:53:33;;;;;;;4.75;2.97;;;24.10;60.60;;;;;;5052167;28;20025;-61
2021/08/12 00:55:59;;;;;;;6.43;3.17;;;24.00;60.60;;;;;;5051089;28;20025;-61
2021/08/12 00:58:25;;;;;;;3.70;2.90;;;24.10;60.70;;;;;;5052283;28;20029;-61
2021/08/12 01:00:51;;;;;;;4.32;2.90;;;24.00;60.60;;;;;;5051151;28;20052;-61
2021/08/12 01:03:17;;;;;;;4.82;2.95;;;24.10;60.70;;;;;;5051105;28;20037;-61
2021/08/12 01:05:48;;;;;;;4.82;3.08;;;24.10;60.70;;;;;;5051673;28;20115;-61
2021/08/12 01:08:29;;;;;;;4.60;2.90;;;24.00;60.60;;;;;;5051380;28;20021;-61
2021/08/12 01:11:01;;;;;;;5.22;3.00;;;24.00;60.60;;;;;;5050635;28;20417;-61
2021/08/12 01:14:22;;;;;;;3.75;2.92;;;24.00;60.50;;;;;;5052027;28;20518;-61
2021/08/12 01:17:02;;;;;;;4.53;2.90;;;24.00;60.60;;;;;;5005486;28;20052;-61
2021/08/12 01:19:46;;;;;;;3.17;2.65;;;24.00;60.50;;;;;;5051783;28;20355;-62
2021/08/12 01:22:17;;;;;;;4.65;3.03;;;24.00;60.60;;;;;;5050319;28;20024;-61
2021/08/12 01:24:46;;;;;;;3.58;2.72;;;24.00;60.60;;;;;;5051433;28;20079;-62
2021/08/12 01:27:14;;;;;;;6.22;3.00;;;24.00;60.50;;;;;;5050912;28;20032;-61
2021/08/12 01:30:06;;;;;;;5.25;3.95;;;24.00;60.50;;;;;;5051215;28;20028;-62
2021/08/12 01:33:05;;;;;;;4.68;3.28;;;24.00;60.50;;;;;;5051322;28;20114;-62
2021/08/12 01:35:32;;;;;;;4.45;2.90;;;24.00;60.60;;;;;;5051198;28;20052;-62
2021/08/12 01:37:57;;;;;;;2.97;2.50;;;24.00;60.60;;;;;;5050204;28;20044;-61
2021/08/12 01:40:26;;;;;;;3.08;2.63;;;24.00;60.70;;;;;;5051390;28;20036;-62
2021/08/12 01:42:53;;;;;;;6.18;3.20;;;24.00;60.70;;;;;;5050876;28;20033;-61
2021/08/12 01:45:20;;;;;;;4.10;3.45;;;24.00;60.60;;;;;;5050957;28;20114;-61
2021/08/12 01:47:48;;;;;;;7.50;3.05;;;24.00;60.60;;;;;;5051189;28;20029;-61
2021/08/12 01:50:16;;;;;;;5.03;3.08;;;24.00;60.70;;;;;;5049942;28;20086;-61
2021/08/12 01:52:44;;;;;;;4.05;2.83;;;24.00;60.70;;;;;;5050864;28;20035;-61
2021/08/12 01:55:11;;;;;;;3.83;2.92;;;24.00;60.60;;;;;;5042245;28;20386;-62
2021/08/12 01:57:39;;;;;;;5.00;2.70;;;24.00;60.60;;;;;;5051040;28;20033;-61
2021/08/12 02:00:05;;;;;;;4.03;3.10;;;24.00;60.60;;;;;;5050249;28;20474;-61
2021/08/12 02:02:34;;;;;;;4.25;2.97;;;24.00;60.60;;;;;;5049971;28;20029;-61
2021/08/12 02:05:00;;;;;;;4.53;2.65;;;24.00;60.60;;;;;;5050012;28;20032;-62
2021/08/12 02:07:26;;;;;;;5.25;3.30;;;24.00;60.60;;;;;;5050409;28;20513;-62
2021/08/12 02:09:52;;;;;;;3.55;2.60;;;24.00;60.60;;;;;;5050790;28;20053;-62
2021/08/12 02:12:17;;;;;;;3.90;2.83;;;24.00;60.60;;;;;;5050285;28;20033;-62
2021/08/12 02:14:43;;;;;;;4.95;2.95;;;24.00;60.60;;;;;;5050742;28;20033;-62
2021/08/12 02:17:09;;;;;;;3.83;2.95;;;24.00;60.70;;;;;;5050156;28;20374;-61
2021/08/12 02:19:34;;;;;;;4.22;2.80;;;24.00;60.60;;;;;;5050537;28;20099;-62
2021/08/12 02:22:06;;;;;;;4.40;2.90;;;24.00;60.60;;;;;;5049807;28;20033;-61
2021/08/12 02:24:41;;;;;;;3.75;3.00;;;24.00;60.60;;;;;;5050830;28;20367;-62
2021/08/12 02:27:13;;;;;;;4.68;3.10;;;24.00;60.60;;;;;;5050217;28;20021;-61
2021/08/12 02:29:39;;;;;;;;;;;24.00;60.60;;;;;;5051484;28;20370;-61
2021/08/12 02:32:09;;;;;;;4.53;2.83;;;24.00;60.60;;;;;;5049783;28;19944;-61
2021/08/12 02:34:36;;;;;;;5.45;3.15;;;24.00;60.60;;;;;;5050416;28;20060;-61
2021/08/12 02:37:05;;;;;;;3.45;2.90;;;24.00;60.60;;;;;;5049632;28;20036;-61
2021/08/12 02:39:34;;;;;;;4.00;3.00;;;24.00;61.20;;;;;;5050774;28;20036;-62
2021/08/12 02:42:05;;;;;;;4.75;3.22;;;24.00;60.60;;;;;;5050089;28;20029;-61
2021/08/12 02:44:31;;;;;;;4.22;3.60;;;24.00;60.60;;;;;;5050640;28;20041;-61
2021/08/12 02:47:00;;;;;;;4.00;3.10;;;24.00;60.60;;;;;;5050506;28;20029;-61
2021/08/12 02:49:31;;;;;;;3.75;2.80;;;24.00;60.60;;;;;;5050633;28;20524;-61
2021/08/12 02:51:59;;;;;;;4.95;3.15;;;23.90;60.60;;;;;;5050349;28;20031;-61
2021/08/12 02:54:27;;;;;;;2.72;2.38;;;24.00;60.60;;;;;;5050865;28;20040;-61
2021/08/12 02:56:58;;;;;;;4.75;3.00;;;24.00;60.60;;;;;;5050303;28;20043;-62
2021/08/12 02:59:25;;;;;;;5.88;3.25;;;24.00;60.70;;;;;;5050561;28;20059;-61
2021/08/12 03:01:54;;;;;;;4.53;3.28;;;24.00;60.60;;;;;;5050318;28;20048;-61
2021/08/12 03:04:20;;;;;;;5.13;3.10;;;24.00;60.60;;;;;;5050987;28;20043;-62
2021/08/12 03:06:48;;;;;;;4.72;3.30;;;24.00;60.50;;;;;;5053617;28;20047;-62
2021/08/12 03:09:15;;;;;;;5.43;3.20;;;24.00;60.60;;;;;;5053706;28;20109;-62
2021/08/12 03:11:42;;;;;;;5.03;3.88;;;24.00;60.60;;;;;;5054458;28;20033;-61
2021/08/12 03:14:08;;;;;;;5.60;2.97;;;24.00;60.60;;;;;;5053424;28;20485;-61
2021/08/12 03:16:34;;;;;;;4.07;3.17;;;24.00;60.60;;;;;;5054315;28;20037;-63
2021/08/12 03:19:02;;;;;;;4.03;3.38;;;24.00;60.60;;;;;;5053624;28;20025;-61
2021/08/12 03:21:28;;;;;;;5.53;3.20;;;23.90;60.60;;;;;;5053520;28;20061;-61
2021/08/12 03:23:56;;;;;;;3.58;2.97;;;24.00;60.60;;;;;;5054092;28;20441;-61
2021/08/12 03:26:22;;;;;;;5.82;3.10;;;24.00;60.60;;;;;;5054015;28;20079;-60
2021/08/12 03:28:48;;;;;;;3.58;3.10;;;24.00;60.60;;;;;;5053621;28;20025;-61
2021/08/12 03:31:13;;;;;;;5.15;3.70;;;24.00;60.60;;;;;;5045025;28;20025;-61
2021/08/12 03:33:41;;;;;;;3.97;3.05;;;24.00;60.60;;;;;;5053303;28;20055;-62
2021/08/12 03:36:06;;;;;;;4.68;3.50;;;24.00;60.60;;;;;;5053015;28;20036;-62
2021/08/12 03:38:34;;;;;;;3.60;3.15;;;24.00;60.50;;;;;;5053817;28;20455;-61
2021/08/12 03:40:59;;;;;;;4.63;3.08;;;24.00;60.50;;;;;;5053244;28;20017;-61
2021/08/12 03:43:25;;;;;;;4.43;3.33;;;24.00;60.50;;;;;;5053126;28;20379;-61
2021/08/12 03:45:51;;;;;;;3.95;2.88;;;24.00;60.60;;;;;;5053453;28;20044;-61
2021/08/12 03:48:17;;;;;;;5.28;3.22;;;24.00;60.60;;;;;;5052718;28;20471;-61
2021/08/12 03:50:42;;;;;;;4.45;2.90;;;23.90;60.50;;;;;;5053510;28;20436;-61
2021/08/12 03:53:08;;;;;;;4.03;3.05;;;23.90;60.50;;;;;;5052355;28;20528;-61
2021/08/12 03:55:33;;;;;;;7.15;3.42;;;23.90;60.50;;;;;;5053538;28;20029;-61
2021/08/12 03:57:59;;;;;;;5.00;3.30;;;23.90;60.60;;;;;;5052579;28;20021;-61
2021/08/12 04:00:25;;;;;;;3.95;2.95;;;24.00;60.60;;;;;;5052516;28;20049;-61
2021/08/12 04:02:50;;;;;;;4.35;3.08;;;23.90;60.50;;;;;;5053325;28;20033;-58
2021/08/12 04:05:16;;;;;;;4.63;3.13;;;23.90;60.50;;;;;;5052244;28;20029;-61
2021/08/12 04:07:41;;;;;;;4.07;3.15;;;23.90;60.50;;;;;;5053338;28;20506;-60
2021/08/12 04:10:08;;;;;;;4.20;3.35;;;23.90;60.50;;;;;;5052344;28;20021;-62
2021/08/12 04:12:34;;;;;;;4.07;2.85;;;23.90;60.50;;;;;;5052860;28;20060;-61
2021/08/12 04:14:59;;;;;;;7.22;3.65;;;23.90;60.50;;;;;;5052224;28;20064;-61
2021/08/12 04:17:25;;;;;;;4.30;2.97;;;23.90;60.50;;;;;;5051331;28;20040;-61
2021/08/12 04:19:50;;;;;;;4.80;3.08;;;23.90;60.50;;;;;;5052798;28;20025;-61
2021/08/12 04:22:16;;;;;;;4.47;3.55;;;23.90;60.40;;;;;;5052003;28;20386;-61
2021/08/12 04:24:42;;;;;;;4.05;2.95;;;23.90;60.50;;;;;;5052313;28;20410;-61
2021/08/12 04:27:07;;;;;;;5.38;3.35;;;23.90;60.40;;;;;;5052209;28;20029;-61
2021/08/12 04:29:33;;;;;;;6.00;3.63;;;23.90;60.40;;;;;;5052774;28;20527;-61
2021/08/12 04:31:59;;;;;;;3.80;3.10;;;23.90;60.40;;;;;;5052433;28;20035;-61
2021/08/12 04:34:24;;;;;;;7.10;3.53;;;23.90;60.40;;;;;;5052131;28;20455;-61
2021/08/12 04:36:50;;;;;;;5.45;3.10;;;23.90;60.40;;;;;;5052390;28;20055;-61
2021/08/12 04:39:16;;;;;;;6.28;2.80;;;23.90;60.40;;;;;;5051520;28;20052;-61
2021/08/12 04:41:41;;;;;;;5.10;3.22;;;23.90;60.40;;;;;;5051253;28;20029;-61
2021/08/12 04:44:07;;;;;;;5.75;3.10;;;23.90;60.40;;;;;;5051248;28;20032;-61
2021/08/12 04:46:32;;;;;;;6.53;2.78;;;23.90;60.50;;;;;;5051869;28;20029;-61
2021/08/12 04:48:58;;;;;;;9.13;4.00;;;23.90;61.30;;;;;;5051803;28;20385;-62
2021/08/12 04:51:24;;;;;;;6.45;4.20;;;23.80;60.40;;;;;;5051789;28;20459;-62
2021/08/12 04:53:49;;;;;;;5.72;4.40;;;23.60;60.70;;;;;;5051271;28;20466;-61
2021/08/12 04:56:15;;;;;;;7.38;4.10;;;23.50;60.80;;;;;;5051556;28;20447;-62
2021/08/12 04:58:41;;;;;;;6.00;3.67;;;23.50;60.80;;;;;;5052033;28;20466;-62
2021/08/12 05:01:06;;;;;;;5.82;3.90;;;23.30;61.40;;;;;;5050188;28;20132;-61
2021/08/12 05:03:32;;;;;;;6.72;4.30;;;23.10;62.10;;;;;;5051662;28;20426;-62
2021/08/12 05:06:02;;;;;;;7.80;3.90;;;23.10;62.00;;;;;;5050795;28;20033;-58
2021/08/12 05:08:27;;;;;;;7.00;4.53;;;23.20;62.00;;;;;;5051108;28;20082;-61
2021/08/12 05:10:53;;;;;;;5.40;4.25;;;23.10;62.20;;;;;;5051737;28;20421;-62
2021/08/12 05:13:18;;;;;;;7.63;4.20;;;23.00;62.70;;;;;;5050806;28;20056;-61
2021/08/12 05:15:45;;;;;;;4.97;3.90;;;22.90;62.90;;;;;;5055711;28;20495;-61
2021/08/12 05:18:10;;;;;;;8.45;4.55;;;22.90;63.00;;;;;;5055675;28;20112;-61
2021/08/12 05:20:36;;;;;;;8.73;4.50;;;22.90;63.10;;;;;;5059487;28;20108;-62
2021/08/12 05:23:02;;;;;;;8.80;4.70;;;22.90;63.20;;;;;;5051230;28;20516;-62
2021/08/12 05:25:27;;;;;;;8.23;4.18;;;22.90;63.20;;;;;;5051617;28;20061;-62
2021/08/12 05:27:53;;;;;;;6.10;4.20;;;22.80;63.20;;;;;;5051003;28;20474;-61
2021/08/12 05:30:19;;;;;;;7.28;4.57;;;22.80;63.40;;;;;;5050877;28;20355;-61
2021/08/12 05:32:44;;;;;;;7.18;4.47;;;22.70;63.50;;;;;;5051427;28;20065;-62
2021/08/12 05:35:10;;;;;;;8.40;4.45;;;22.70;63.80;;;;;;5050475;28;20040;-61
2021/08/12 05:37:36;;;;;;;9.48;5.53;;;22.80;63.50;;;;;;5051585;28;20037;-61
2021/08/12 05:40:02;;;;;;;8.40;4.90;;;23.00;62.70;;;;;;5050759;28;20027;-62
2021/08/12 05:42:27;;;;;;;7.07;4.72;;;23.20;62.50;;;;;;5051263;28;20033;-61
2021/08/12 05:44:53;;;;;;;6.97;5.10;;;23.30;62.30;;;;;;5051553;28;20133;-60
2021/08/12 05:47:18;;;;;;;9.13;4.93;;;23.20;62.40;;;;;;5050405;28;20029;-61
2021/08/12 05:49:44;;;;;;;7.35;4.30;;;23.20;62.80;;;;;;5051766;28;20355;-61
2021/08/12 05:52:10;;;;;;;7.47;4.70;;;23.20;62.70;;;;;;5049993;28;20028;-57
2021/08/12 05:54:35;;;;;;;5.18;4.15;;;23.20;62.80;;;;;;5050946;28;20075;-57
2021/08/12 05:57:01;;;;;;;6.45;4.20;;;23.20;62.60;;;;;;5051188;28;20029;-60
2021/08/12 05:59:26;;;;;;;7.95;4.43;;;23.20;62.70;;;;;;5050543;28;20039;-63
2021/08/12 06:01:52;;;;;;;5.50;4.13;;;23.20;62.80;;;;;;5051141;28;20036;-60
2021/08/12 06:04:18;;;;;;;8.48;4.72;;;23.30;62.50;;;;;;5050296;28;20052;-63
2021/08/12 06:06:43;;;;;;;6.65;4.70;;;23.30;62.50;;;;;;5051212;28;20029;-59
2021/08/12 06:09:09;;;;;;;8.55;4.72;;;23.40;62.40;;;;;;5048728;28;20470;-65
2021/08/12 06:11:35;;;;;;;6.75;4.45;;;23.40;62.90;;;;;;5050947;28;20075;-62
2021/08/12 06:14:00;;;;;;;8.57;4.63;;;23.40;62.20;;;;;;5051080;28;20037;-64
2021/08/12 06:16:26;;;;;;;9.15;5.03;;;23.40;62.30;;;;;;5049016;28;20033;-61
2021/08/12 06:18:52;;;;;;;9.02;4.65;;;23.40;62.50;;;;;;5050723;28;20470;-60
2021/08/12 06:21:20;;;;;;;7.95;5.00;;;23.40;62.30;;;;;;5049974;28;20031;-57
2021/08/12 06:23:45;;;;;;;10.32;5.30;;;23.40;62.50;;;;;;5050511;28;20021;-61
2021/08/12 06:26:11;;;;;;;12.38;4.40;;;23.50;62.40;;;;;;5049784;28;20025;-60
2021/08/12 06:28:37;;;;;;;7.22;4.78;;;23.50;62.40;;;;;;5045022;28;20158;-58
2021/08/12 06:31:03;;;;;;;7.30;4.93;;;23.50;62.70;;;;;;5047754;28;20044;-60
2021/08/12 06:33:29;;;;;;;6.60;4.65;;;23.50;62.70;;;;;;5051529;28;20025;-60
2021/08/12 06:35:54;;;;;;;6.35;4.38;;;23.50;62.60;;;;;;5050220;28;20036;-60
2021/08/12 06:38:20;;;;;;;6.82;4.70;;;23.50;62.70;;;;;;5049734;28;20064;-60
2021/08/12 06:40:46;;;;;;;7.13;4.80;;;23.50;62.70;;;;;;5053624;28;20033;-60
2021/08/12 06:43:11;;;;;;;8.50;4.88;;;23.50;62.60;;;;;;5053887;28;20029;-60
2021/08/12 06:45:37;;;;;;;6.53;4.90;;;23.50;62.70;;;;;;5054335;28;20044;-60
2021/08/12 06:48:06;;;;;;;8.57;4.40;;;23.50;62.60;;;;;;5054593;28;20071;-60
2021/08/12 06:50:32;;;;;;;7.32;4.93;;;23.50;62.80;;;;;;5054273;28;20032;-60
2021/08/12 06:52:58;;;;;;;7.38;4.88;;;23.50;62.60;;;;;;5054413;28;20037;-60
2021/08/12 06:55:23;;;;;;;9.70;4.85;;;23.50;62.70;;;;;;5053442;28;20182;-60
2021/08/12 06:57:49;;;;;;;9.13;4.28;;;23.40;63.40;;;;;;5053880;28;20115;-61
2021/08/12 07:00:16;;;;;;;8.90;5.50;;;23.20;64.10;;;;;;5056405;28;20056;-60
2021/08/12 07:02:42;;;;;;;7.80;4.65;;;23.10;64.60;;;;;;5054605;28;20021;-59
2021/08/12 07:05:09;;;;;;;7.75;4.95;;;23.00;65.10;;;;;;5053290;28;20049;-60
2021/08/12 07:07:36;;;;;;;7.72;5.25;;;23.00;65.40;;;;;;5054371;28;20033;-60
2021/08/12 07:10:03;;;;;;;7.47;4.60;;;22.90;65.20;;;;;;5054240;28;20099;-60
2021/08/12 07:12:28;;;;;;;9.75;5.30;;;23.00;65.70;;;;;;5053081;28;20136;-60
2021/08/12 07:14:54;;;;;;;10.23;4.90;;;23.00;65.50;;;;;;5054015;28;20119;-59
2021/08/12 07:17:19;;;;;;;10.55;5.53;;;23.00;65.50;;;;;;5053179;28;20029;-60
2021/08/12 07:19:45;;;;;;;8.38;4.65;;;23.00;65.50;;;;;;5054224;28;20487;-60
2021/08/12 07:22:11;;;;;;;6.78;5.03;;;23.00;66.00;;;;;;5052869;28;20528;-60
2021/08/12 07:24:36;;;;;;;6.70;4.55;;;23.00;65.50;;;;;;5053825;28;20040;-60
2021/08/12 07:27:03;;;;;;;7.65;4.63;;;23.00;66.20;;;;;;5053542;28;20041;-60
2021/08/12 07:29:28;;;;;;;9.38;5.10;;;23.00;66.20;;;;;;5054156;28;20033;-60
2021/08/12 07:31:54;;;;;;;9.38;5.60;;;23.00;66.10;;;;;;5053506;28;20029;-60
2021/08/12 07:34:19;;;;;;;9.80;5.05;;;23.00;66.00;;;;;;5053228;28;20036;-60
2021/08/12 07:36:48;;;;;;;7.65;4.93;;;23.10;66.00;;;;;;5053684;28;20104;-59
2021/08/12 07:39:18;;;;;;;8.15;4.82;;;23.10;66.10;;;;;;5052674;28;20072;-60
2021/08/12 07:41:43;;;;;;;8.00;4.82;;;23.10;66.20;;;;;;5048224;28;20025;-60
2021/08/12 07:44:09;;;;;;;8.15;4.70;;;23.10;66.10;;;;;;5053186;28;20394;-60
2021/08/12 07:46:35;;;;;;;8.30;4.70;;;23.10;65.90;;;;;;5053589;28;20051;-60
2021/08/12 07:49:01;;;;;;;7.78;5.55;;;23.20;65.90;;;;;;5053436;28;20458;-60
2021/08/12 07:51:27;;;;;;;12.10;5.22;;;23.20;65.90;;;;;;5052500;28;20025;-60
2021/08/12 07:53:53;;;;;;;9.50;4.97;;;23.20;65.90;;;;;;5053294;28;20051;-60
2021/08/12 07:56:20;;;;;;;10.88;5.82;;;23.20;65.60;;;;;;5051076;28;20426;-60
2021/08/12 07:58:47;;;;;;;6.68;4.75;;;23.20;65.50;;;;;;5054825;28;20035;-60
2021/08/12 08:01:14;;;;;;;6.05;4.88;;;23.30;66.00;;;;;;5056052;28;20064;-60
2021/08/12 08:03:40;;;;;;;8.02;5.07;;;23.30;66.20;;;;;;5053223;28;20037;-60
2021/08/12 08:06:06;;;;;;;9.27;5.18;;;23.30;66.40;;;;;;5052436;28;20075;-60
2021/08/12 08:08:32;;;;;;;9.85;5.43;;;23.30;66.30;;;;;;5052329;28;20549;-61
2021/08/12 08:10:57;;;;;;;9.63;5.32;;;23.40;66.20;;;;;;5052925;28;20071;-59
2021/08/12 08:13:23;;;;;;;9.45;5.22;;;23.40;66.00;;;;;;5051930;28;20057;-60
2021/08/12 08:15:49;;;;;;;9.45;4.88;;;23.40;65.90;;;;;;5052466;28;20033;-60
2021/08/12 08:18:14;;;;;;;10.73;4.93;;;23.50;65.70;;;;;;5052134;28;20450;-60
2021/08/12 08:20:40;;;;;;;8.48;5.35;;;23.50;66.00;;;;;;5052151;28;20060;-60
2021/08/12 08:23:08;;;;;;;11.88;5.38;;;23.50;66.50;;;;;;5052798;28;20500;-60
2021/08/12 08:25:34;;;;;;;9.25;5.20;;;23.50;65.60;;;;;;5051950;28;20062;-60
2021/08/12 08:28:02;;;;;;;8.68;5.30;;;23.50;65.70;;;;;;5052565;28;20025;-60
2021/08/12 08:30:30;;;;;;;11.07;4.60;;;23.60;65.40;;;;;;5050337;28;20044;-60
2021/08/12 08:32:56;;;;;;;7.97;4.43;;;23.60;65.20;;;;;;5052130;28;20028;-60
2021/08/12 08:35:25;;;;;;;6.65;4.55;;;23.60;65.00;;;;;;5052433;28;20475;-60
2021/08/12 08:37:51;;;;;;;11.07;4.18;;;23.60;65.00;;;;;;5060764;28;20386;-60
2021/08/12 08:40:16;;;;;;;8.55;4.88;;;23.60;64.80;;;;;;5051798;28;20047;-60
2021/08/12 08:42:45;;;;;;;8.20;4.70;;;23.70;64.80;;;;;;5051677;28;20021;-60
2021/08/12 08:45:11;;;;;;;7.47;4.60;;;23.70;64.60;;;;;;5052024;28;20425;-60
2021/08/12 08:47:40;;;;;;;5.60;4.40;;;23.70;64.70;;;;;;5051832;28;20120;-60
2021/08/12 08:50:06;;;;;;;6.72;4.45;;;23.70;64.40;;;;;;5052109;28;20033;-60
2021/08/12 08:52:32;;;;;;;8.05;4.65;;;23.80;64.60;;;;;;5052027;28;20032;-60
2021/08/12 08:54:58;;;;;;;5.72;4.22;;;23.80;64.40;;;;;;5052190;28;20037;-60
2021/08/12 08:57:24;;;;;;;7.82;4.43;;;23.80;64.10;;;;;;5051464;28;20090;-59
2021/08/12 08:59:50;;;;;;;8.27;4.07;;;23.80;64.00;;;;;;5051273;28;20049;-59
2021/08/12 09:02:16;;;;;;;6.40;4.13;;;23.80;63.90;;;;;;5050323;28;20135;-59
2021/08/12 09:04:41;;;;;;;6.03;3.95;;;23.80;63.90;;;;;;5051743;28;20025;-58
2021/08/12 09:07:08;;;;;;;7.18;4.38;;;23.90;64.50;;;;;;5052089;28;20025;-59
2021/08/12 09:09:37;;;;;;;8.65;4.05;;;23.90;64.20;;;;;;5051027;28;20462;-59
2021/08/12 09:12:05;;;;;;;8.02;4.25;;;23.90;64.90;;;;;;5052142;28;20417;-59
2021/08/12 09:14:42;;;;;;;5.78;3.72;;;23.90;64.20;;;;;;5043405;28;20509;-59
2021/08/12 09:17:29;;;;;;;6.70;3.83;;;23.90;64.10;;;;;;5054771;28;20033;-59
2021/08/12 09:20:09;;;;;;;6.50;4.00;;;23.90;64.10;;;;;;5051693;28;20090;-59
2021/08/12 09:22:49;;;;;;;6.95;3.78;;;23.90;64.10;;;;;;5049998;28;20406;-59
2021/08/12 09:25:17;;;;;;;5.55;4.45;;;23.90;64.10;;;;;;5051128;28;20390;-59
2021/08/12 09:27:42;;;;;;;6.68;4.18;;;23.90;64.00;;;;;;5051495;28;20055;-59
2021/08/12 09:30:14;;;;;;;6.65;3.88;;;23.90;64.10;;;;;;5051795;28;20029;-59
2021/08/12 09:32:47;;;;;;;5.90;4.30;;;23.90;64.10;;;;;;5051390;28;20076;-59
2021/08/12 09:35:27;;;;;;;7.20;3.67;;;23.90;64.10;;;;;;5050753;28;20029;-59
2021/08/12 09:38:05;;;;;;;5.72;3.63;;;23.90;64.00;;;;;;5051688;28;20021;-59
2021/08/12 09:40:30;;;;;;;8.27;3.72;;;23.90;64.10;;;;;;5050879;28;20394;-59
2021/08/12 09:43:01;;;;;;;8.02;4.00;;;23.90;64.10;;;;;;5050820;28;20025;-59
2021/08/12 09:45:30;;;;;;;4.78;3.60;;;23.90;64.30;;;;;;5050728;28;20771;-59
2021/08/12 09:48:07;;;;;;;4.68;3.63;;;23.90;64.00;;;;;;5050956;28;20037;-59
2021/08/12 09:50:36;;;;;;;5.88;4.07;;;23.90;64.00;;;;;;5050310;28;20107;-61
2021/08/12 09:53:02;;;;;;;5.15;3.63;;;23.90;64.10;;;;;;5049961;28;20039;-60
2021/08/12 09:55:36;;;;;;;7.05;3.83;;;23.90;63.90;;;;;;5050336;28;20052;-61
2021/08/12 09:58:09;;;;;;;5.43;3.47;;;23.90;64.00;;;;;;5051151;28;20028;-61
2021/08/12 10:00:41;;;;;;;9.27;4.07;;;23.90;63.80;;;;;;5049923;28;20098;-60
2021/08/12 10:03:25;;;;;;;6.47;3.88;;;24.00;64.00;;;;;;5051145;28;20036;-61
2021/08/12 10:05:52;;;;;;;7.03;3.88;;;23.90;63.80;;;;;;5051205;28;20104;-61
2021/08/12 10:08:26;;;;;;;5.68;3.63;;;24.00;63.90;;;;;;5049966;28;20826;-60
2021/08/12 10:10:53;;;;;;;6.50;4.20;;;24.00;63.80;;;;;;5050951;28;20082;-61
2021/08/12 10:13:19;;;;;;;7.88;3.83;;;24.00;63.70;;;;;;5051122;28;20371;-60
2021/08/12 10:15:49;;;;;;;6.68;3.78;;;24.00;63.70;;;;;;5055778;28;20065;-60
2021/08/12 10:18:19;;;;;;;6.93;3.80;;;24.00;63.70;;;;;;5047011;28;20021;-60
2021/08/12 10:20:47;;;;;;;8.05;4.10;;;24.00;63.60;;;;;;5055357;28;20059;-61
2021/08/12 10:23:14;;;;;;;8.70;3.90;;;24.00;64.20;;;;;;5054907;28;20597;-61
2021/08/12 10:25:40;;;;;;;7.10;4.50;;;24.00;63.60;;;;;;5054618;28;20037;-61
2021/08/12 10:28:08;;;;;;;5.95;3.85;;;24.00;63.50;;;;;;5054290;28;20059;-61
2021/08/12 10:30:35;;;;;;;6.30;3.70;;;24.00;63.60;;;;;;5053879;28;20118;-61
2021/08/12 10:33:04;;;;;;;7.57;4.07;;;24.00;63.00;;;;;;5053715;28;20454;-64
2021/08/12 10:35:32;;;;;;;7.72;4.25;;;24.00;63.10;;;;;;5053816;28;20041;-62
2021/08/12 10:37:59;;;;;;;7.78;3.63;;;24.10;63.30;;;;;;5054114;28;20394;-62
2021/08/12 10:40:31;;;;;;;6.40;3.83;;;24.10;63.20;;;;;;5053539;28;20036;-61
2021/08/12 10:42:58;;;;;;;7.22;3.90;;;24.10;63.20;;;;;;5054578;28;20025;-63
2021/08/12 10:45:26;;;;;;;6.05;3.45;;;24.10;63.20;;;;;;5055386;28;20112;-61
2021/08/12 10:47:56;;;;;;;7.30;3.53;;;24.20;63.40;;;;;;5054126;28;20032;-63
2021/08/12 10:50:22;;;;;;;7.63;3.97;;;24.20;63.30;;;;;;5053634;28;20055;-63
2021/08/12 10:53:06;;;;;;;6.55;4.05;;;24.20;63.20;;;;;;5054389;28;20033;-61
2021/08/12 10:55:34;;;;;;;5.50;3.20;;;24.20;63.20;;;;;;5052703;28;20037;-62
2021/08/12 10:58:18;;;;;;;6.95;3.50;;;24.20;63.30;;;;;;5053329;28;20041;-61
2021/08/12 11:00:52;;;;;;;6.85;3.60;;;24.10;63.20;;;;;;5053611;28;20045;-61
2021/08/12 11:03:36;;;;;;;5.50;3.53;;;24.10;63.20;;;;;;5054501;28;20363;-62
2021/08/12 11:06:09;;;;;;;5.30;3.42;;;24.10;63.20;;;;;;5054348;28;20025;-61
2021/08/12 11:08:51;;;;;;;10.40;3.63;;;24.10;63.30;;;;;;5053753;28;20478;-62
2021/08/12 11:11:23;;;;;;;5.07;3.78;;;24.00;63.40;;;;;;5053240;28;20043;-61
2021/08/12 11:13:50;;;;;;;;;;;24.00;63.30;;;;;;5054210;28;20483;-61
2021/08/12 11:16:17;;;;;;;6.15;3.53;;;24.00;63.40;;;;;;5054124;28;20375;-61
2021/08/12 11:18:58;;;;;;;8.48;3.65;;;24.00;63.40;;;;;;5053527;28;20131;-62
2021/08/12 11:21:30;;;;;;;5.82;4.00;;;24.10;63.30;;;;;;5053413;28;20044;-62
2021/08/12 11:23:59;;;;;;;7.35;4.45;;;24.00;63.20;;;;;;5054135;28;20104;-61
2021/08/12 11:26:25;;;;;;;4.60;3.55;;;24.00;63.20;;;;;;5052524;28;20064;-61
2021/08/12 11:28:54;;;;;;;7.50;4.00;;;24.00;63.20;;;;;;5053858;28;20025;-62
2021/08/12 11:31:19;;;;;;;4.80;3.63;;;24.00;63.20;;;;;;5053084;28;20047;-62
2021/08/12 11:33:50;;;;;;;6.07;3.72;;;24.00;63.10;;;;;;5053423;28;20029;-62
2021/08/12 11:36:23;;;;;;;5.07;3.35;;;24.00;63.10;;;;;;5053797;28;20045;-62
2021/08/12 11:38:59;;;;;;;6.15;3.30;;;24.00;63.10;;;;;;5067691;28;20032;-62
2021/08/12 11:41:27;;;;;;;4.90;3.50;;;24.00;63.10;;;;;;5072460;28;20047;-61
2021/08/12 11:43:54;;;;;;;4.70;3.50;;;24.00;63.20;;;;;;5060058;28;20040;-61
2021/08/12 11:46:20;;;;;;;5.00;3.92;;;24.10;63.10;;;;;;5052249;28;20037;-60
2021/08/12 11:48:49;;;;;;;5.65;3.80;;;24.10;63.10;;;;;;5047251;28;20075;-61
2021/08/12 11:51:15;;;;;;;5.00;3.85;;;24.10;63.20;;;;;;5053337;28;20033;-61
2021/08/12 11:53:46;;;;;;;7.22;4.15;;;24.10;63.10;;;;;;5052671;28;20390;-60
2021/08/12 11:56:24;;;;;;;5.65;3.80;;;24.10;63.00;;;;;;5053052;28;20033;-60
2021/08/12 11:58:55;;;;;;;6.90;4.45;;;24.10;63.00;;;;;;5053603;28;20086;-61
2021/08/12 12:01:23;;;;;;;6.25;4.10;;;24.20;63.10;;;;;;5052559;28;20087;-60
2021/08/12 12:03:55;;;;;;;11.57;4.20;;;24.20;63.30;;;;;;5053382;28;20434;-61
2021/08/12 12:06:35;;;;;;;6.70;4.20;;;24.10;63.80;;;;;;5052997;28;20532;-60
2021/08/12 12:09:23;;;;;;;5.15;3.80;;;24.10;63.00;;;;;;5045743;28;20083;-60
2021/08/12 12:11:53;;;;;;;5.13;4.05;;;24.20;63.20;;;;;;5053162;28;20033;-61
2021/08/12 12:14:24;;;;;;;6.85;4.20;;;24.10;63.00;;;;;;5052808;28;20037;-61
2021/08/12 12:17:13;;;;;;;6.03;3.75;;;24.20;63.10;;;;;;5053212;28;20028;-62
2021/08/12 12:20:26;;;;;;;7.10;4.32;;;24.20;63.00;;;;;;5052257;28;20044;-61
2021/08/12 12:23:02;;;;;;;6.75;3.85;;;24.20;63.20;;;;;;5049811;28;20045;-61
2021/08/12 12:25:31;;;;;;;7.75;4.72;;;24.20;63.50;;;;;;5051983;28;20039;-62
2021/08/12 12:28:00;;;;;;;7.97;4.65;;;24.20;63.20;;;;;;5047674;28;20045;-61
2021/08/12 12:40:32;;;;;;;7.22;4.22;;;24.20;63.40;;;;;;5213307;23;20065;-51
2021/08/12 12:42:58;;;;;;;8.13;4.70;;;24.20;63.30;;;;;;4995756;28;20026;-51
2021/08/12 12:45:24;;;;;;;5.72;4.40;;;24.30;63.20;;;;;;4993483;28;20484;-49
2021/08/12 12:47:51;;;;;;;5.25;3.88;;;24.30;63.00;;;;;;4993200;28;20046;-51
2021/08/12 12:50:20;;;;;;;8.65;4.40;;;24.30;62.90;;;;;;4992388;28;20388;-51
2021/08/12 12:53:00;;;;;;;8.30;4.70;;;24.30;62.90;;;;;;5001467;28;20034;-54
2021/08/12 12:55:31;;;;;;;12.82;3.92;;;24.30;62.80;;;;;;4999234;28;20400;-49
2021/08/12 12:58:01;;;;;;;5.60;4.20;;;24.30;62.70;;;;;;5011423;28;20026;-52
2021/08/12 13:00:31;;;;;;;7.43;5.25;;;24.30;62.70;;;;;;4992511;28;20041;-51
2021/08/12 13:02:59;;;;;;;5.05;4.20;;;24.30;62.60;;;;;;5004878;28;20542;-50